createdAt,value
2017-12-05T00:00:53.724Z,115.97
2017-12-05T00:02:56.434Z,121.87
2017-12-05T00:04:59.111Z,110.27
2017-12-05T00:07:01.779Z,108.40
2017-12-05T00:09:04.484Z,95.60
2017-12-05T00:11:07.925Z,98.70
2017-12-05T00:13:10.592Z,108.03
2017-12-05T00:15:13.292Z,98.03
2017-12-05T00:17:15.970Z,115.07
2017-12-05T00:19:18.680Z,96.03
2017-12-05T00:21:22.127Z,98.40
2017-12-05T00:23:24.821Z,109.33
2017-12-05T00:25:27.516Z,105.73
2017-12-05T00:27:30.174Z,105.47
2017-12-05T00:29:32.830Z,105.20
2017-12-05T00:31:35.511Z,109.37
2017-12-05T00:33:38.160Z,97.53
2017-12-05T00:35:40.842Z,99.67
2017-12-05T00:37:43.620Z,95.63
2017-12-05T00:39:46.311Z,101.17
2017-12-05T00:41:49.021Z,101.57
2017-12-05T00:43:51.755Z,107.13
2017-12-05T00:45:54.451Z,93.07
2017-12-05T00:47:57.158Z,99.43
2017-12-05T00:49:59.832Z,112.93
2017-12-05T00:52:02.545Z,114.97
2017-12-05T00:54:05.216Z,103.93
2017-12-05T00:56:07.916Z,99.10
2017-12-05T00:58:10.569Z,90.87
2017-12-05T01:00:13.266Z,105.43
2017-12-05T01:02:15.949Z,98.73
2017-12-05T01:04:18.613Z,108.00
2017-12-05T01:06:21.284Z,101.63
2017-12-05T01:08:23.940Z,95.97
2017-12-05T01:10:27.370Z,95.37
2017-12-05T01:12:30.132Z,92.60
2017-12-05T01:14:32.911Z,100.57
2017-12-05T01:16:35.566Z,89.73
2017-12-05T01:18:39.019Z,112.23
2017-12-05T01:20:41.745Z,97.50
2017-12-05T01:22:44.415Z,83.27
2017-12-05T01:24:47.874Z,102.50
2017-12-05T01:26:50.546Z,85.73
2017-12-05T01:28:53.234Z,93.20
2017-12-05T01:30:55.877Z,92.70
2017-12-05T01:32:58.520Z,83.80
2017-12-05T01:35:01.188Z,79.57
2017-12-05T01:37:04.633Z,84.43
2017-12-05T01:39:07.277Z,74.00
2017-12-05T01:41:09.995Z,76.10
2017-12-05T01:43:12.661Z,70.80
2017-12-05T01:45:15.330Z,80.93
2017-12-05T01:47:18.026Z,76.60
2017-12-05T01:49:20.700Z,78.90
2017-12-05T01:51:23.373Z,86.83
2017-12-05T01:53:26.072Z,72.43
2017-12-05T01:55:28.715Z,76.87
2017-12-05T01:57:31.371Z,86.00
2017-12-05T01:59:34.154Z,81.63
2017-12-05T02:01:36.864Z,86.03
2017-12-05T02:03:39.534Z,75.50
2017-12-05T02:05:42.249Z,84.97
2017-12-05T02:07:45.690Z,94.20
2017-12-05T02:09:48.354Z,66.60
2017-12-05T02:11:51.077Z,68.83
2017-12-05T02:13:53.780Z,73.97
2017-12-05T02:15:56.476Z,83.37
2017-12-05T02:17:59.179Z,87.97
2017-12-05T02:20:01.869Z,80.87
2017-12-05T02:22:04.636Z,76.03
2017-12-05T02:24:08.078Z,80.07
2017-12-05T02:26:10.747Z,66.80
2017-12-05T02:28:14.267Z,83.77
2017-12-05T02:30:16.956Z,77.87
2017-12-05T02:32:19.623Z,76.63
2017-12-05T02:34:22.269Z,73.30
2017-12-05T02:36:25.767Z,72.13
2017-12-05T02:38:28.381Z,68.23
2017-12-05T02:40:43.009Z,79.43
2017-12-05T02:42:45.698Z,63.27
2017-12-05T02:44:48.384Z,69.30
2017-12-05T02:46:51.068Z,63.10
2017-12-05T02:48:53.814Z,63.47
2017-12-05T02:50:56.493Z,57.23
2017-12-05T02:52:59.196Z,60.77
2017-12-05T02:55:01.934Z,61.00
2017-12-05T02:57:05.390Z,65.30
2017-12-05T02:59:08.110Z,62.77
2017-12-05T03:01:10.842Z,61.43
2017-12-05T03:03:13.560Z,55.83
2017-12-05T03:05:17.038Z,70.20
2017-12-05T03:07:19.756Z,58.43
2017-12-05T03:09:22.534Z,54.83
2017-12-05T03:11:25.206Z,53.50
2017-12-05T03:13:27.905Z,58.07
2017-12-05T03:15:30.622Z,60.00
2017-12-05T03:17:33.334Z,57.60
2017-12-05T03:19:36.043Z,54.27
2017-12-05T03:21:38.705Z,47.60
2017-12-05T03:23:41.615Z,63.07
2017-12-05T03:25:45.279Z,57.97
2017-12-05T03:27:47.937Z,37.53
2017-12-05T03:29:50.640Z,43.30
2017-12-05T03:31:53.332Z,47.27
2017-12-05T03:33:55.986Z,53.63
2017-12-05T03:35:58.635Z,41.03
2017-12-05T03:38:02.084Z,50.97
2017-12-05T03:40:04.739Z,49.00
2017-12-05T03:42:07.376Z,53.63
2017-12-05T03:44:10.843Z,49.67
2017-12-05T03:46:13.496Z,46.90
2017-12-05T03:48:16.250Z,60.87
2017-12-05T03:50:18.911Z,58.07
2017-12-05T03:52:21.581Z,50.37
2017-12-05T03:54:24.279Z,52.27
2017-12-05T03:56:26.929Z,57.03
2017-12-05T03:58:30.333Z,53.60
2017-12-05T04:00:33.124Z,46.20
2017-12-05T04:02:35.763Z,46.07
2017-12-05T04:04:39.243Z,69.60
2017-12-05T04:06:41.984Z,53.53
2017-12-05T04:08:44.635Z,63.77
2017-12-05T04:10:47.281Z,59.13
2017-12-05T04:12:49.952Z,55.03
2017-12-05T04:14:52.589Z,56.03
2017-12-05T04:16:55.236Z,44.70
2017-12-05T04:18:57.904Z,57.93
2017-12-05T04:21:01.335Z,46.63
2017-12-05T04:23:04.002Z,62.83
2017-12-05T04:25:06.816Z,52.17
2017-12-05T04:27:09.566Z,54.40
2017-12-05T04:29:12.221Z,63.90
2017-12-05T04:31:14.909Z,54.07
2017-12-05T04:33:17.592Z,57.37
2017-12-05T04:35:20.290Z,50.10
2017-12-05T04:37:22.994Z,59.30
2017-12-05T04:39:25.709Z,58.60
2017-12-05T04:41:28.433Z,58.73
2017-12-05T04:43:31.096Z,67.97
2017-12-05T04:45:34.339Z,63.70
2017-12-05T04:47:37.021Z,70.40
2017-12-05T04:49:39.749Z,66.87
2017-12-05T04:51:42.434Z,70.97
2017-12-05T04:53:45.105Z,69.07
2017-12-05T04:55:47.812Z,66.90
2017-12-05T04:57:51.237Z,68.73
2017-12-05T04:59:53.984Z,61.10
2017-12-05T05:01:57.569Z,63.30
2017-12-05T05:04:00.243Z,65.73
2017-12-05T05:06:02.900Z,81.37
2017-12-05T05:08:06.483Z,63.07
2017-12-05T05:10:09.134Z,77.17
2017-12-05T05:12:11.803Z,73.20
2017-12-05T05:14:14.498Z,67.37
2017-12-05T05:16:17.155Z,72.47
2017-12-05T05:18:19.797Z,77.87
2017-12-05T05:20:22.492Z,95.57
2017-12-05T05:22:25.916Z,77.13
2017-12-05T05:24:28.572Z,84.00
2017-12-05T05:26:31.265Z,83.77
2017-12-05T05:28:33.912Z,85.57
2017-12-05T05:30:37.354Z,88.70
2017-12-05T05:32:40.241Z,73.33
2017-12-05T05:34:42.881Z,83.57
2017-12-05T05:36:45.542Z,87.50
2017-12-05T05:38:48.978Z,88.57
2017-12-05T05:40:51.733Z,92.97
2017-12-05T05:42:54.399Z,102.03
2017-12-05T05:44:57.061Z,108.17
2017-12-05T05:47:00.484Z,104.40
2017-12-05T05:49:03.160Z,103.13
2017-12-05T05:51:05.836Z,101.50
2017-12-05T05:53:08.609Z,95.20
2017-12-05T05:55:11.295Z,96.93
2017-12-05T05:57:13.997Z,104.67
2017-12-05T05:59:16.635Z,103.73
2017-12-05T06:01:19.300Z,115.43
2017-12-05T06:03:21.959Z,119.47
2017-12-05T06:05:25.414Z,99.67
2017-12-05T06:07:28.161Z,112.07
2017-12-05T06:09:30.939Z,105.40
2017-12-05T06:11:33.716Z,101.53
2017-12-05T06:13:36.495Z,109.27
2017-12-05T06:15:39.411Z,110.00
2017-12-05T06:17:42.103Z,101.47
2017-12-05T06:19:44.768Z,119.20
2017-12-05T06:21:47.434Z,122.37
2017-12-05T06:23:50.077Z,102.47
2017-12-05T06:25:52.944Z,108.47
2017-12-05T06:27:55.729Z,100.90
2017-12-05T06:29:58.391Z,95.03
2017-12-05T06:32:01.843Z,114.60
2017-12-05T06:34:04.581Z,89.20
2017-12-05T06:36:07.243Z,103.90
2017-12-05T06:38:10.693Z,96.13
2017-12-05T06:40:13.355Z,117.57
2017-12-05T06:42:16.227Z,107.37
2017-12-05T06:44:20.001Z,107.63
2017-12-05T06:46:22.806Z,106.90
2017-12-05T06:48:25.492Z,87.07
2017-12-05T06:50:28.231Z,96.30
2017-12-05T06:52:30.974Z,95.03
2017-12-05T06:54:33.670Z,90.63
2017-12-05T06:56:37.131Z,85.60
2017-12-05T06:58:39.864Z,94.73
2017-12-05T07:00:42.578Z,96.37
2017-12-05T07:02:45.289Z,91.60
2017-12-05T07:04:48.755Z,105.80
2017-12-05T07:06:51.443Z,105.10
2017-12-05T07:08:54.153Z,104.23
2017-12-05T07:10:57.608Z,101.77
2017-12-05T07:13:00.294Z,90.83
2017-12-05T07:15:03.011Z,92.73
2017-12-05T07:17:05.705Z,101.47
2017-12-05T07:19:08.398Z,89.77
2017-12-05T07:21:11.160Z,102.37
2017-12-05T07:23:13.855Z,91.17
2017-12-05T07:25:16.547Z,77.80
2017-12-05T07:27:19.372Z,89.73
2017-12-05T07:29:22.145Z,81.73
2017-12-05T07:31:25.616Z,87.50
2017-12-05T07:33:28.326Z,92.37
2017-12-05T07:35:31.062Z,86.00
2017-12-05T07:37:33.748Z,82.87
2017-12-05T07:39:36.523Z,96.20
2017-12-05T07:41:39.222Z,97.63
2017-12-05T07:43:42.795Z,92.43
2017-12-05T07:45:45.509Z,89.57
2017-12-05T07:47:48.302Z,80.37
2017-12-05T07:49:51.079Z,91.10
2017-12-05T07:51:53.797Z,84.47
2017-12-05T07:53:56.503Z,74.93
2017-12-05T07:55:59.938Z,88.63
2017-12-05T07:58:02.665Z,82.90
2017-12-05T08:00:05.489Z,86.30
2017-12-05T08:02:08.204Z,85.87
2017-12-05T08:04:10.907Z,84.60
2017-12-05T08:06:14.374Z,95.83
2017-12-05T08:08:17.044Z,91.60
2017-12-05T08:10:19.750Z,92.17
2017-12-05T08:12:23.233Z,85.53
2017-12-05T08:14:26.805Z,79.10
2017-12-05T08:16:29.899Z,87.77
2017-12-05T08:18:32.782Z,88.53
2017-12-05T08:20:35.452Z,81.87
2017-12-05T08:22:38.302Z,89.67
2017-12-05T08:24:40.989Z,86.13
2017-12-05T08:26:43.749Z,91.30
2017-12-05T08:28:46.509Z,80.63
2017-12-05T08:30:49.957Z,93.30
2017-12-05T08:32:52.871Z,74.40
2017-12-05T08:34:56.406Z,92.30
2017-12-05T08:36:59.096Z,81.27
2017-12-05T08:39:01.816Z,94.97
2017-12-05T08:41:04.545Z,82.67
2017-12-05T08:43:07.240Z,81.97
2017-12-05T08:45:10.300Z,68.43
2017-12-05T08:47:13.027Z,80.80
2017-12-05T08:49:15.759Z,76.90
2017-12-05T08:51:18.460Z,77.57
2017-12-05T08:53:21.173Z,82.63
2017-12-05T08:55:24.613Z,77.10
2017-12-05T08:57:27.300Z,72.80
2017-12-05T08:59:30.097Z,71.77
2017-12-05T09:01:32.818Z,73.43
2017-12-05T09:03:35.484Z,69.57
2017-12-05T09:05:38.976Z,85.30
2017-12-05T09:07:42.427Z,79.23
2017-12-05T09:09:45.189Z,71.03
2017-12-05T09:11:47.917Z,71.90
2017-12-05T09:13:51.405Z,65.00
2017-12-05T09:15:54.137Z,71.03
2017-12-05T09:17:56.824Z,70.43
2017-12-05T09:19:59.516Z,69.60
2017-12-05T09:22:02.262Z,71.13
2017-12-05T09:24:04.940Z,75.47
2017-12-05T09:26:07.639Z,72.00
2017-12-05T09:28:10.368Z,63.57
2017-12-05T09:30:13.844Z,82.40
2017-12-05T09:32:17.315Z,70.17
2017-12-05T09:34:20.042Z,82.97
2017-12-05T09:36:22.747Z,69.50
2017-12-05T09:38:25.457Z,85.97
2017-12-05T09:40:28.187Z,70.67
2017-12-05T09:42:30.886Z,76.13
2017-12-05T09:44:33.584Z,69.20
2017-12-05T09:46:36.327Z,67.30
2017-12-05T09:48:39.081Z,80.47
2017-12-05T09:50:41.827Z,61.77
2017-12-05T09:52:44.537Z,71.80
2017-12-05T09:54:47.244Z,65.23
2017-12-05T09:56:49.914Z,61.87
2017-12-05T09:58:52.614Z,62.53
2017-12-05T10:00:55.295Z,67.90
2017-12-05T10:02:58.024Z,65.37
2017-12-05T10:05:00.761Z,65.27
2017-12-05T10:07:03.458Z,56.37
2017-12-05T10:09:06.936Z,65.60
2017-12-05T10:11:09.649Z,58.27
2017-12-05T10:13:12.380Z,60.57
2017-12-05T10:15:15.082Z,58.60
2017-12-05T10:17:17.861Z,57.53
2017-12-05T10:19:21.354Z,47.33
2017-12-05T10:21:24.812Z,61.10
2017-12-05T10:23:27.715Z,56.77
2017-12-05T10:25:30.515Z,69.33
2017-12-05T10:27:33.992Z,54.20
2017-12-05T10:29:36.749Z,64.80
2017-12-05T10:31:39.591Z,56.73
2017-12-05T10:33:42.278Z,68.30
2017-12-05T10:35:44.963Z,52.07
2017-12-05T10:37:47.672Z,59.27
2017-12-05T10:39:50.388Z,55.83
2017-12-05T10:41:53.098Z,53.30
2017-12-05T10:43:56.223Z,48.00
2017-12-05T10:45:59.135Z,51.43
2017-12-05T10:48:01.891Z,50.53
2017-12-05T10:50:05.360Z,54.73
2017-12-05T10:52:08.227Z,50.93
2017-12-05T10:54:11.030Z,50.90
2017-12-05T10:56:13.726Z,51.10
2017-12-05T10:58:17.214Z,49.47
2017-12-05T11:00:20.726Z,47.50
2017-12-05T11:02:23.437Z,45.73
2017-12-05T11:04:26.134Z,57.83
2017-12-05T11:06:28.835Z,48.80
2017-12-05T11:08:32.303Z,49.37
2017-12-05T11:10:34.957Z,49.40
2017-12-05T11:12:37.777Z,52.90
2017-12-05T11:14:41.230Z,51.13
2017-12-05T11:16:43.999Z,51.67
2017-12-05T11:18:46.710Z,43.00
2017-12-05T11:20:49.443Z,54.00
2017-12-05T11:22:52.148Z,44.27
2017-12-05T11:24:54.834Z,48.70
2017-12-05T11:26:57.518Z,43.10
2017-12-05T11:29:00.194Z,47.73
2017-12-05T11:31:02.881Z,60.20
2017-12-05T11:33:05.597Z,45.97
2017-12-05T11:35:08.249Z,46.17
2017-12-05T11:37:11.705Z,45.73
2017-12-05T11:39:14.387Z,50.60
2017-12-05T11:41:17.059Z,44.03
2017-12-05T11:43:19.759Z,42.73
2017-12-05T11:45:22.450Z,46.73
2017-12-05T11:47:25.913Z,54.60
2017-12-05T11:49:28.628Z,44.53
2017-12-05T11:51:32.102Z,47.07
2017-12-05T11:53:34.855Z,49.70
2017-12-05T11:55:37.574Z,43.03
2017-12-05T11:57:41.010Z,43.83
2017-12-05T11:59:43.732Z,51.00
2017-12-05T12:01:46.408Z,41.93
2017-12-05T12:03:49.096Z,40.77
2017-12-05T12:05:52.633Z,41.60
2017-12-05T12:07:55.362Z,40.37
2017-12-05T12:09:58.188Z,44.57
2017-12-05T12:12:00.829Z,48.83
2017-12-05T12:14:04.361Z,49.60
2017-12-05T12:16:07.027Z,41.17
2017-12-05T12:18:09.721Z,44.73
2017-12-05T12:20:12.380Z,44.73
2017-12-05T12:22:15.034Z,43.70
2017-12-05T12:24:18.515Z,38.77
2017-12-05T12:26:21.208Z,44.80
2017-12-05T12:28:24.702Z,41.43
2017-12-05T12:30:28.203Z,46.40
2017-12-05T12:32:31.622Z,50.17
2017-12-05T12:34:34.284Z,48.93
2017-12-05T12:36:36.958Z,41.20
2017-12-05T12:38:39.636Z,43.47
2017-12-05T12:40:42.296Z,39.13
2017-12-05T12:42:45.751Z,45.60
2017-12-05T12:44:48.603Z,49.50
2017-12-05T12:46:51.248Z,47.43
2017-12-05T12:48:54.684Z,44.07
2017-12-05T12:50:57.351Z,35.37
2017-12-05T12:53:00.015Z,47.07
2017-12-05T12:55:02.703Z,43.40
2017-12-05T12:57:05.352Z,51.20
2017-12-05T12:59:08.020Z,45.10
2017-12-05T13:01:11.468Z,42.03
2017-12-05T13:03:14.120Z,52.03
2017-12-05T13:05:16.771Z,46.57
2017-12-05T13:07:19.519Z,44.60
2017-12-05T13:09:22.367Z,41.93
2017-12-05T13:11:25.344Z,48.30
2017-12-05T13:13:28.031Z,36.83
2017-12-05T13:15:30.690Z,39.57
2017-12-05T13:17:33.338Z,39.40
2017-12-05T13:19:36.009Z,45.60
2017-12-05T13:21:39.955Z,38.17
2017-12-05T13:23:42.614Z,45.27
2017-12-05T13:25:45.296Z,42.07
2017-12-05T13:27:47.975Z,39.33
2017-12-05T13:29:50.695Z,34.50
2017-12-05T13:31:53.388Z,39.00
2017-12-05T13:33:57.089Z,37.90
2017-12-05T13:36:00.504Z,35.17
2017-12-05T13:38:05.171Z,33.90
2017-12-05T13:40:08.031Z,40.13
2017-12-05T13:42:10.691Z,38.97
2017-12-05T13:44:13.574Z,39.87
2017-12-05T13:46:16.358Z,51.33
2017-12-05T13:48:19.017Z,38.50
2017-12-05T13:50:21.970Z,33.50
2017-12-05T13:52:24.624Z,36.40
2017-12-05T13:54:27.269Z,37.37
2017-12-05T13:56:30.039Z,39.60
2017-12-05T13:58:32.691Z,33.53
2017-12-05T14:00:36.147Z,38.63
2017-12-05T14:02:38.880Z,39.27
2017-12-05T14:04:41.561Z,30.53
2017-12-05T14:06:44.235Z,35.47
2017-12-05T14:08:46.929Z,40.63
2017-12-05T14:10:49.623Z,39.67
2017-12-05T14:12:52.322Z,38.23
2017-12-05T14:14:54.986Z,36.93
2017-12-05T14:16:57.662Z,35.70
2017-12-05T14:19:00.362Z,35.90
2017-12-05T14:21:03.832Z,31.40
2017-12-05T14:23:06.509Z,36.20
2017-12-05T14:25:09.217Z,33.80
2017-12-05T14:27:12.672Z,35.73
2017-12-05T14:29:15.383Z,40.30
2017-12-05T14:31:18.811Z,37.47
2017-12-05T14:33:21.512Z,37.13
2017-12-05T14:35:24.986Z,34.70
2017-12-05T14:37:27.667Z,35.33
2017-12-05T14:39:30.336Z,30.63
2017-12-05T14:41:33.037Z,33.67
2017-12-05T14:43:35.710Z,37.00
2017-12-05T14:45:38.391Z,33.97
2017-12-05T14:47:41.076Z,46.30
2017-12-05T14:49:43.726Z,37.97
2017-12-05T14:51:46.389Z,30.50
2017-12-05T14:53:49.107Z,32.07
2017-12-05T14:55:51.784Z,35.40
2017-12-05T14:57:54.485Z,81.10
2017-12-05T14:59:57.962Z,52.87
2017-12-05T15:02:00.635Z,36.60
2017-12-05T15:04:04.105Z,40.97
2017-12-05T15:06:06.754Z,49.90
2017-12-05T15:08:09.410Z,45.47
2017-12-05T15:10:12.073Z,33.03
2017-12-05T15:12:14.726Z,44.63
2017-12-05T15:14:17.410Z,37.00
2017-12-05T15:16:20.864Z,41.80
2017-12-05T15:18:23.558Z,42.50
2017-12-05T15:20:26.261Z,37.97
2017-12-05T15:22:29.725Z,35.03
2017-12-05T15:24:32.391Z,39.83
2017-12-05T15:26:35.072Z,38.30
2017-12-05T15:28:37.747Z,41.77
2017-12-05T15:30:40.431Z,38.67
2017-12-05T15:32:43.079Z,32.40
2017-12-05T15:34:45.793Z,37.67
2017-12-05T15:36:48.464Z,34.17
2017-12-05T15:38:51.141Z,38.67
2017-12-05T15:40:53.870Z,38.30
2017-12-05T15:42:56.527Z,37.70
2017-12-05T15:44:59.193Z,41.83
2017-12-05T15:47:01.885Z,37.33
2017-12-05T15:49:04.533Z,35.83
2017-12-05T15:51:07.979Z,34.33
2017-12-05T15:53:10.677Z,36.73
2017-12-05T15:55:13.354Z,104.67
2017-12-05T15:57:16.021Z,43.87
2017-12-05T15:59:18.705Z,36.53
2017-12-05T16:01:21.397Z,29.50
2017-12-05T16:03:24.861Z,33.73
2017-12-05T16:05:27.578Z,26.27
2017-12-05T16:07:31.012Z,30.63
2017-12-05T16:09:33.713Z,31.77
2017-12-05T16:11:36.417Z,30.60
2017-12-05T16:13:39.894Z,34.90
2017-12-05T16:15:42.586Z,27.23
2017-12-05T16:17:46.101Z,26.10
2017-12-05T16:19:48.791Z,28.03
2017-12-05T16:21:51.471Z,25.27
2017-12-05T16:23:54.168Z,29.63
2017-12-05T16:25:56.823Z,39.73
2017-12-05T16:27:59.551Z,32.57
2017-12-05T16:30:02.994Z,36.33
2017-12-05T16:32:05.642Z,25.00
2017-12-05T16:34:08.350Z,28.40
2017-12-05T16:36:11.014Z,28.87
2017-12-05T16:38:13.694Z,27.33
2017-12-05T16:40:16.420Z,29.23
2017-12-05T16:42:19.897Z,25.57
2017-12-05T16:44:22.567Z,39.40
2017-12-05T16:46:25.302Z,26.50
2017-12-05T16:48:27.960Z,24.67
2017-12-05T16:50:30.816Z,29.40
2017-12-05T16:52:34.282Z,25.77
2017-12-05T16:54:36.973Z,25.93
2017-12-05T16:56:39.636Z,24.80
2017-12-05T16:58:42.315Z,25.50
2017-12-05T17:00:45.022Z,34.70
2017-12-05T17:02:48.474Z,27.10
2017-12-05T17:04:51.149Z,25.77
2017-12-05T17:06:53.817Z,27.03
2017-12-05T17:08:56.477Z,28.90
2017-12-05T17:10:59.163Z,32.40
2017-12-05T17:13:01.841Z,30.57
2017-12-05T17:15:04.541Z,31.70
2017-12-05T17:17:07.253Z,31.07
2017-12-05T17:19:09.911Z,29.33
2017-12-05T17:21:13.384Z,30.10
2017-12-05T17:23:16.079Z,39.07
2017-12-05T17:25:19.514Z,43.90
2017-12-05T17:27:22.173Z,43.30
2017-12-05T17:29:24.861Z,39.80
2017-12-05T17:31:27.589Z,35.30
2017-12-05T17:33:31.068Z,40.93
2017-12-05T17:35:33.773Z,28.87
2017-12-05T17:37:37.296Z,32.60
2017-12-05T17:39:40.032Z,27.07
2017-12-05T17:41:42.704Z,32.83
2017-12-05T17:43:45.507Z,31.70
2017-12-05T17:45:48.275Z,28.83
2017-12-05T17:47:51.704Z,27.73
2017-12-05T17:49:54.351Z,26.27
2017-12-05T17:51:57.812Z,27.77
2017-12-05T17:54:00.502Z,27.50
2017-12-05T17:56:03.178Z,29.70
2017-12-05T17:58:06.644Z,25.90
2017-12-05T18:00:09.329Z,24.67
2017-12-05T18:02:11.988Z,27.23
2017-12-05T18:04:14.710Z,24.20
2017-12-05T18:06:18.205Z,27.17
2017-12-05T18:08:20.927Z,28.33
2017-12-05T18:10:23.717Z,24.43
2017-12-05T18:12:26.411Z,24.27
2017-12-05T18:14:29.119Z,24.47
2017-12-05T18:16:31.892Z,20.73
2017-12-05T18:18:35.332Z,23.30
2017-12-05T18:20:38.007Z,27.40
2017-12-05T18:22:40.740Z,25.53
2017-12-05T18:24:43.454Z,22.77
2017-12-05T18:26:46.195Z,29.10
2017-12-05T18:28:48.917Z,23.60
2017-12-05T18:30:56.401Z,22.10
2017-12-05T18:32:59.232Z,23.80
2017-12-05T18:35:01.967Z,36.00
2017-12-05T18:37:04.662Z,25.83
2017-12-05T18:39:07.367Z,29.20
2017-12-05T18:41:10.035Z,27.57
2017-12-05T18:43:13.484Z,25.53
2017-12-05T18:45:16.334Z,23.87
2017-12-05T18:47:19.020Z,29.07
2017-12-05T18:49:21.709Z,24.33
2017-12-05T18:51:24.428Z,21.80
2017-12-05T18:53:27.891Z,26.63
2017-12-05T18:55:30.581Z,25.03
2017-12-05T18:57:33.289Z,21.53
2017-12-05T18:59:37.026Z,26.47
2017-12-05T19:01:40.728Z,43.10
2017-12-05T19:03:43.622Z,56.40
2017-12-05T19:05:46.303Z,40.23
2017-12-05T19:07:49.051Z,28.07
2017-12-05T19:09:52.654Z,27.17
2017-12-05T19:11:55.317Z,26.87
2017-12-05T19:13:57.995Z,28.20
2017-12-05T19:16:00.700Z,30.90
2017-12-05T19:18:03.388Z,29.80
2017-12-05T19:20:20.359Z,24.13
2017-12-05T19:22:23.035Z,23.53
2017-12-05T19:24:25.738Z,22.20
2017-12-05T19:26:28.443Z,32.10
2017-12-05T19:28:31.992Z,25.70
2017-12-05T19:30:34.711Z,28.00
2017-12-05T19:32:39.221Z,28.83
2017-12-05T19:34:50.530Z,28.80
2017-12-05T19:36:53.197Z,21.10
2017-12-05T19:38:55.887Z,19.03
2017-12-05T19:40:58.564Z,23.90
2017-12-05T19:43:01.245Z,22.63
2017-12-05T19:45:04.047Z,34.00
2017-12-05T19:47:19.671Z,36.30
2017-12-05T19:49:22.392Z,25.53
2017-12-05T19:51:25.127Z,20.27
2017-12-05T19:53:30.635Z,24.67
2017-12-05T19:55:33.302Z,26.40
2017-12-05T19:57:38.166Z,26.80
2017-12-05T19:59:41.685Z,20.60
2017-12-05T20:01:44.386Z,20.20
2017-12-05T20:03:50.757Z,27.07
2017-12-05T20:05:53.439Z,23.00
2017-12-05T20:08:02.714Z,22.77
2017-12-05T20:10:05.420Z,19.23
2017-12-05T20:12:08.122Z,21.40
2017-12-05T20:14:12.065Z,19.57
2017-12-05T20:16:14.790Z,23.07
2017-12-05T20:18:17.539Z,26.80
2017-12-05T20:20:23.552Z,25.20
2017-12-05T20:22:26.270Z,18.60
2017-12-05T20:24:28.927Z,23.07
2017-12-05T20:26:31.685Z,17.30
2017-12-05T20:28:35.185Z,24.57
2017-12-05T20:30:38.643Z,21.17
2017-12-05T20:32:41.342Z,21.90
2017-12-05T20:34:44.042Z,17.87
2017-12-05T20:36:46.707Z,21.43
2017-12-05T20:38:50.189Z,25.97
2017-12-05T20:40:52.905Z,24.87
2017-12-05T20:42:55.594Z,24.07
2017-12-05T20:44:58.356Z,21.33
2017-12-05T20:47:08.991Z,25.50
2017-12-05T20:49:12.548Z,29.20
2017-12-05T20:51:15.259Z,22.17
2017-12-05T20:53:18.760Z,21.13
2017-12-05T20:55:24.244Z,22.53
2017-12-05T20:57:26.899Z,19.43
2017-12-05T20:59:36.590Z,21.93
2017-12-05T21:01:39.269Z,22.30
2017-12-05T21:03:49.956Z,28.63
2017-12-05T21:05:52.605Z,19.97
2017-12-05T21:07:55.274Z,25.13
2017-12-05T21:09:57.985Z,19.57
2017-12-05T21:12:00.656Z,21.70
2017-12-05T21:14:04.098Z,17.53
2017-12-05T21:16:06.724Z,19.60
2017-12-05T21:18:18.601Z,22.53
2017-12-05T21:20:22.135Z,28.90
2017-12-05T21:22:24.793Z,21.03
2017-12-05T21:24:27.494Z,24.90
2017-12-05T21:26:30.153Z,18.47
2017-12-05T21:28:32.792Z,19.90
2017-12-05T21:30:35.423Z,27.60
2017-12-05T21:32:38.183Z,25.33
2017-12-05T21:34:40.860Z,21.70
2017-12-05T21:36:43.518Z,19.50
2017-12-05T21:38:46.207Z,20.83
2017-12-05T21:40:48.868Z,19.97
2017-12-05T21:42:51.530Z,23.27
2017-12-05T21:45:05.268Z,20.43
2017-12-05T21:47:08.669Z,22.73
2017-12-05T21:49:11.363Z,21.73
2017-12-05T21:51:14.052Z,20.50
2017-12-05T21:53:16.684Z,19.77
2017-12-05T21:55:20.079Z,22.90
2017-12-05T21:57:23.529Z,18.70
2017-12-05T21:59:26.165Z,26.73
2017-12-05T22:01:28.830Z,23.57
2017-12-05T22:03:37.994Z,18.10
2017-12-05T22:05:44.000Z,23.60
2017-12-05T22:07:47.445Z,21.87
2017-12-05T22:09:50.092Z,19.27
2017-12-05T22:11:52.766Z,21.47
2017-12-05T22:13:55.422Z,22.50
2017-12-05T22:15:58.079Z,22.77
2017-12-05T22:18:01.492Z,22.20
2017-12-05T22:20:04.178Z,22.73
2017-12-05T22:22:06.844Z,20.63
2017-12-05T22:24:09.511Z,21.77
2017-12-05T22:26:12.948Z,22.90
2017-12-05T22:28:15.609Z,27.97
2017-12-05T22:30:19.024Z,21.50
2017-12-05T22:32:21.723Z,18.10
2017-12-05T22:34:24.397Z,19.10
2017-12-05T22:36:27.035Z,20.03
2017-12-05T22:38:29.711Z,21.17
2017-12-05T22:40:32.352Z,22.17
2017-12-05T22:42:35.042Z,18.73
2017-12-05T22:44:41.205Z,16.73
2017-12-05T22:46:43.851Z,18.97
2017-12-05T22:48:47.279Z,21.73
2017-12-05T22:50:49.912Z,25.23
2017-12-05T22:52:59.753Z,19.00
2017-12-05T22:55:03.198Z,17.27
2017-12-05T22:57:05.839Z,20.73
2017-12-05T22:59:08.500Z,22.13
2017-12-05T23:01:11.968Z,21.20
2017-12-05T23:03:14.631Z,28.60
2017-12-05T23:05:17.290Z,20.30
2017-12-05T23:07:19.989Z,19.43
2017-12-05T23:09:22.637Z,20.53
2017-12-05T23:11:25.296Z,21.67
2017-12-05T23:13:27.982Z,20.13
2017-12-05T23:15:30.637Z,21.90
2017-12-05T23:17:33.285Z,20.10
2017-12-05T23:19:36.735Z,20.33
2017-12-05T23:21:39.394Z,17.27
2017-12-05T23:23:42.051Z,15.77
2017-12-05T23:25:44.721Z,17.47
2017-12-05T23:27:47.359Z,22.60
2017-12-05T23:29:50.035Z,16.07
2017-12-05T23:31:52.719Z,19.63
2017-12-05T23:33:55.380Z,19.53
2017-12-05T23:35:58.047Z,17.97
2017-12-05T23:38:00.707Z,15.27
2017-12-05T23:40:03.361Z,21.53
2017-12-05T23:42:06.002Z,18.53
2017-12-05T23:44:09.449Z,17.83
2017-12-05T23:46:12.093Z,18.33
2017-12-05T23:48:14.754Z,21.10
2017-12-05T23:50:18.213Z,18.07
2017-12-05T23:52:21.667Z,16.27
2017-12-05T23:54:25.088Z,16.40
2017-12-05T23:56:27.773Z,16.30
2017-12-05T23:58:30.430Z,17.27
